EW5860 Weather Reports


Display with metric or nautical units.
time (UTC)temp
F
wind
direction
speed
MPH
gust
MPH
rain 1hr
in
rain 24hr
in
rain mn
in
humidity
%
barometer
mb
20191210204651 53 229 4.0 13.0 0.02 0.39 0.12 92 1012.1
20191210203034 53 202 4.0 11.0 0.02 0.39 0.12 93 1011.5
20191210201648 53 204 3.0 8.0 0.01 0.38 0.11 93 1010.9
20191210200049 53 249 4.0 7.0 0.02 0.38 0.11 93 1010.5
20191210194618 53 199 3.0 10.0 0.01 0.49 0.10 94 1010.1
20191210193024 53 218 3.0 7.0 0.01 0.49 0.10 94 1010.0
20191210191616 54 200 4.0 7.0 0.02 0.49 0.10 94 1010.3
20191210190029 54 225 3.0 8.0 0.02 0.48 0.09 94 1009.9
20191210184640 53 219 4.0 11.0 0.02 0.56 0.09 95 1010.0
20191210183036 53 192 2.0 9.0 0.03 0.56 0.09 95 1009.7
20191210181521 53 205 3.0 9.0 0.05 0.55 0.08 95 1010.2
20191210180200 53 255 3.0 9.0 0.04 0.54 0.07 95 1010.2
20191210174516 53 180 4.0 9.0 0.06 0.64 0.07 94 1010.2
20191210173110 53 213 4.0 7.0 0.06 0.63 0.06 94 1010.2
20191210171523 53 241 1.0 6.0 0.03 0.60 0.03 94 1010.4
20191210170012 53 175 7.0 12.0 0.03 0.60 0.03 93 1010.1
20191210164537 53 223 5.0 13.0 0.01 0.63 0.01 92 1010.0
20191210163056 54 210 5.0 14.0 0.00 0.62 0.00 91 1009.9
20191210161508 54 194 5.0 10.0 0.00 0.62 0.00 91 1010.1
20191210160008 54 216 5.0 9.0 0.00 0.62 0.00 91 1010.2
20191210154508 54 182 5.0 11.0 0.00 0.62 0.00 90 1010.8
20191210153003 54 215 3.0 10.0 0.00 0.62 0.00 90 1010.7
20191210151503 54 209 5.0 15.0 0.00 0.62 0.00 90 1010.3
20191210150001 54 190 4.0 11.0 0.00 0.62 0.00 90 1010.6
20191210144741 54 218 7.0 15.0 0.00 0.62 0.00 90 1010.1
20191210143216 53 211 6.0 11.0 0.00 0.62 0.00 91 1010.2
20191210141804 53 217 6.0 13.0 0.00 0.62 0.00 91 1009.9
20191210140133 53 198 7.0 11.0 0.00 0.62 0.00 91 1010.2
20191210134737 53 235 3.0 7.0 0.00 0.62 0.00 91 1010.2
20191210133620 53 202 4.0 11.0 0.00 0.62 0.00 91 1009.9
20191210131656 53 199 2.0 7.0 0.00 0.62 0.00 91 1009.1
20191210130125 53 205 4.0 10.0 0.00 0.62 0.00 91 1009.3
20191210124632 53 234 1.0 5.0 0.00 0.64 0.00 91 1008.9
20191210123145 53 205 3.0 10.0 0.00 0.64 0.00 91 1008.9
20191210121617 53 159 4.0 13.0 0.00 0.64 0.00 91 1008.7
20191210120121 53 196 7.0 16.0 0.00 0.64 0.00 91 1008.5
20191210114711 53 231 7.0 14.0 0.00 0.67 0.00 91 1008.2
20191210113133 53 199 3.0 10.0 0.00 0.67 0.00 91 1008.1
20191210111605 53 199 2.0 10.0 0.00 0.67 0.00 91 1008.0
20191210110055 52 214 4.0 9.0 0.00 0.67 0.00 91 1008.1
20191210104706 53 223 4.0 8.0 0.00 0.70 0.00 91 1008.0
20191210103100 52 229 5.0 8.0 0.00 0.70 0.00 92 1008.0
20191210101542 52 207 4.0 8.0 0.00 0.70 0.00 92 1008.1
20191210100035 52 158 4.0 10.0 0.00 0.70 0.00 92 1007.8
20191210094553 52 188 5.0 10.0 0.00 0.76 0.00 92 1007.9
20191210093053 52 197 4.0 7.0 0.00 0.76 0.00 92 1007.9
20191210091632 52 180 4.0 10.0 0.00 0.76 0.00 92 1007.8
20191210090027 52 198 3.0 10.0 0.00 0.76 0.00 92 1007.9
20191210084541 52 201 6.0 11.0 0.00 0.76 0.00 92 1008.0
20191210083044 52 214 5.0 11.0 0.00 0.76 0.00 92 1008.0
20191210081541 52 221 5.0 11.0 0.00 0.76 0.00 92 1008.0
20191210080038 52 190 2.0 9.0 0.00 0.76 0.00 92 1008.1
20191210074521 52 174 4.0 9.0 0.00 0.76 0.00 92 1008.3
20191210073033 52 206 2.0 8.0 0.00 0.76 0.00 92 1007.9
20191210071521 52 197 4.0 11.0 0.00 0.76 0.00 92 1007.6
20191210070020 52 178 6.0 10.0 0.00 0.76 0.00 93 1007.5
20191210064544 52 198 5.0 12.0 0.00 0.76 0.00 93 1007.3
20191210063046 52 215 5.0 10.0 0.00 0.76 0.00 92 1007.3
20191210061535 52 173 6.0 19.0 0.00 0.76 0.00 93 1007.5
20191210060007 52 205 5.0 12.0 0.00 0.76 0.00 93 1007.6
20191210054512 52 160 7.0 17.0 0.00 0.76 0.00 93 1007.5
20191210053003 52 182 6.0 18.0 0.00 0.76 0.00 93 1007.4
20191210051734 52 194 7.0 19.0 0.00 0.76 0.00 93 1007.5
20191210050343 52 227 8.0 15.0 0.00 0.76 0.00 93 1007.6
20191210044639 52 184 5.0 15.0 0.00 0.76 0.76 94 1007.4
20191210043156 52 202 7.0 16.0 0.00 0.76 0.76 93 1007.7
20191210041645 51 189 5.0 15.0 0.00 0.76 0.76 94 1007.8
20191210040212 51 219 3.0 11.0 0.00 0.76 0.76 94 1007.9
20191210034635 51 180 3.0 15.0 0.00 0.76 0.76 94 1007.8
20191210033155 51 195 5.0 14.0 0.00 0.76 0.76 94 1008.0
20191210031612 51 222 6.0 17.0 0.00 0.76 0.76 94 1008.0
20191210030107 51 198 5.0 11.0 0.00 0.76 0.76 94 1008.0
20191210024553 50 214 5.0 15.0 0.00 0.76 0.76 94 1008.2
20191210023110 50 223 6.0 10.0 0.01 0.76 0.76 94 1008.3
20191210021603 50 190 3.0 9.0 0.01 0.76 0.76 94 1008.3
20191210020212 50 190 3.0 11.0 0.01 0.76 0.76 94 1008.3
20191210014549 50 190 3.0 11.0 0.00 0.75 0.75 94 1008.4
20191210013041 50 192 5.0 14.0 0.00 0.75 0.75 94 1008.4
20191210011551 50 207 7.0 18.0 0.00 0.75 0.75 93 1008.6
20191210010034 50 155 6.0 11.0 0.00 0.75 0.75 93 1008.9
20191210004603 50 179 5.0 15.0 0.00 0.75 0.75 93 1008.8
20191210003028 50 158 7.0 17.0 0.00 0.75 0.75 93 1008.8
20191210001544 50 169 8.0 15.0 0.00 0.75 0.75 93 1008.8
20191210000121 50 142 7.0 14.0 0.00 0.75 0.75 93 1009.0
20191209234527 50 118 6.0 19.0 0.00 0.75 0.75 94 1008.9
20191209233044 49 187 7.0 15.0 0.00 0.75 0.75 94 1009.1
20191209231531 49 194 3.0 10.0 0.00 0.75 0.75 94 1009.0
20191209230025 49 169 6.0 13.0 0.02 0.75 0.75 94 1009.4
20191209224518 49 137 5.0 14.0 0.06 0.75 0.75 94 1009.6
20191209223012 49 152 4.0 14.0 0.09 0.75 0.75 95 1009.6
20191209221522 49 102 1.0 16.0 0.13 0.75 0.75 95 1010.1
20191209220011 49 113 3.0 13.0 0.14 0.73 0.73 95 1010.3
20191209214509 49 210 4.0 9.0 0.12 0.69 0.69 95 1010.5
20191209213210 48 126 2.0 6.0 0.13 0.67 0.67 95 1010.5
20191209211625 48 186 4.0 10.0 0.10 0.62 0.62 95 1011.0
20191209210154 48 169 3.0 11.0 0.09 0.59 0.59 95 1011.2